createdAt,value
2018-12-02T00:00:29.109Z,21.17
2018-12-02T00:01:00.716Z,21.18
2018-12-02T00:01:32.314Z,21.18
2018-12-02T00:02:03.915Z,21.18
2018-12-02T00:02:35.514Z,21.20
2018-12-02T00:03:07.130Z,21.20
2018-12-02T00:03:38.720Z,21.21
2018-12-02T00:04:10.320Z,21.22
2018-12-02T00:04:41.904Z,21.22
2018-12-02T00:05:13.508Z,21.21
2018-12-02T00:05:45.145Z,21.21
2018-12-02T00:06:16.737Z,21.01
2018-12-02T00:06:48.348Z,21.21
2018-12-02T00:07:19.949Z,21.21
2018-12-02T00:07:51.557Z,21.21
2018-12-02T00:08:23.152Z,21.21
2018-12-02T00:08:54.736Z,21.20
2018-12-02T00:09:26.369Z,21.21
2018-12-02T00:09:57.962Z,21.18
2018-12-02T00:10:29.553Z,21.20
2018-12-02T00:11:01.137Z,21.20
2018-12-02T00:11:32.730Z,21.18
2018-12-02T00:12:04.348Z,21.19
2018-12-02T00:12:35.952Z,21.19
2018-12-02T00:13:07.560Z,21.19
2018-12-02T00:13:39.154Z,21.19
2018-12-02T00:14:10.736Z,21.19
2018-12-02T00:14:42.334Z,21.20
2018-12-02T00:15:13.944Z,21.19
2018-12-02T00:15:45.593Z,21.19
2018-12-02T00:16:17.195Z,21.18
2018-12-02T00:16:48.808Z,21.17
2018-12-02T00:17:20.440Z,21.15
2018-12-02T00:17:52.048Z,21.17
2018-12-02T00:18:23.645Z,21.17
2018-12-02T00:18:55.248Z,21.16
2018-12-02T00:19:26.837Z,21.17
2018-12-02T00:19:58.430Z,21.16
2018-12-02T00:20:30.076Z,21.16
2018-12-02T00:21:01.671Z,21.16
2018-12-02T00:21:33.283Z,21.14
2018-12-02T00:22:04.878Z,21.14
2018-12-02T00:22:36.470Z,21.15
2018-12-02T00:23:08.065Z,21.14
2018-12-02T00:23:39.663Z,21.14
2018-12-02T00:24:11.262Z,21.14
2018-12-02T00:24:42.885Z,21.13
2018-12-02T00:25:14.478Z,21.13
2018-12-02T00:25:46.074Z,21.13
2018-12-02T00:26:17.666Z,21.13
2018-12-02T00:26:49.269Z,21.12
2018-12-02T00:27:20.871Z,21.12
2018-12-02T00:27:52.476Z,21.12
2018-12-02T00:28:24.106Z,21.11
2018-12-02T00:28:55.749Z,21.11
2018-12-02T00:29:27.351Z,21.11
2018-12-02T00:29:59.000Z,21.01
2018-12-02T00:30:30.594Z,21.10
2018-12-02T00:31:02.186Z,21.10
2018-12-02T00:31:33.831Z,21.10
2018-12-02T00:32:05.713Z,21.10
2018-12-02T00:32:37.301Z,21.10
2018-12-02T00:33:08.894Z,20.89
2018-12-02T00:33:40.476Z,21.10
2018-12-02T00:34:12.070Z,21.09
2018-12-02T00:34:43.670Z,21.09
2018-12-02T00:35:15.274Z,21.09
2018-12-02T00:35:46.875Z,20.88
2018-12-02T00:36:18.471Z,21.07
2018-12-02T00:36:50.066Z,21.07
2018-12-02T00:37:21.658Z,21.09
2018-12-02T00:37:53.273Z,21.10
2018-12-02T00:38:24.870Z,21.09
2018-12-02T00:38:56.478Z,21.09
2018-12-02T00:39:28.120Z,21.08
2018-12-02T00:39:59.714Z,21.06
2018-12-02T00:40:31.316Z,21.05
2018-12-02T00:41:02.900Z,21.05
2018-12-02T00:41:34.484Z,21.03
2018-12-02T00:42:06.092Z,21.01
2018-12-02T00:42:37.686Z,21.01
2018-12-02T00:43:09.292Z,21.00
2018-12-02T00:43:40.905Z,20.98
2018-12-02T00:44:12.492Z,20.98
2018-12-02T00:44:44.126Z,20.97
2018-12-02T00:45:15.736Z,20.97
2018-12-02T00:45:47.379Z,20.96
2018-12-02T00:46:19.032Z,20.96
2018-12-02T00:46:50.641Z,20.94
2018-12-02T00:47:22.238Z,20.84
2018-12-02T00:47:53.833Z,20.95
2018-12-02T00:48:25.416Z,20.95
2018-12-02T00:48:57.052Z,20.95
2018-12-02T00:49:28.637Z,20.87
2018-12-02T00:50:00.244Z,20.92
2018-12-02T00:50:31.847Z,20.93
2018-12-02T00:51:03.482Z,20.93
2018-12-02T00:51:35.077Z,20.92
2018-12-02T00:52:06.674Z,20.93
2018-12-02T00:52:38.266Z,20.93
2018-12-02T00:53:09.872Z,20.93
2018-12-02T00:53:41.486Z,20.94
2018-12-02T00:54:13.085Z,20.93
2018-12-02T00:54:44.691Z,20.93
2018-12-02T00:55:16.295Z,20.92
2018-12-02T00:55:47.900Z,20.91
2018-12-02T00:56:19.498Z,20.91
2018-12-02T00:56:51.080Z,20.91
2018-12-02T00:57:22.727Z,20.90
2018-12-02T00:57:54.336Z,20.90
2018-12-02T00:58:25.948Z,20.90
2018-12-02T00:58:57.599Z,20.89
2018-12-02T00:59:29.212Z,20.88
2018-12-02T01:00:00.813Z,20.87
2018-12-02T01:00:32.409Z,20.86
2018-12-02T01:01:03.996Z,20.86
2018-12-02T01:01:35.593Z,20.87
2018-12-02T01:02:07.176Z,20.88
2018-12-02T01:02:38.788Z,20.87
2018-12-02T01:03:10.384Z,20.85
2018-12-02T01:03:42.032Z,20.85
2018-12-02T01:04:13.643Z,20.85
2018-12-02T01:04:45.264Z,20.90
2018-12-02T01:05:16.873Z,20.91
2018-12-02T01:05:48.480Z,20.90
2018-12-02T01:06:20.068Z,20.87
2018-12-02T01:06:53.638Z,20.85
2018-12-02T01:07:23.331Z,20.82
2018-12-02T01:07:54.983Z,20.78
2018-12-02T01:08:26.582Z,20.79
2018-12-02T01:08:58.188Z,20.76
2018-12-02T01:09:29.796Z,20.78
2018-12-02T01:10:01.411Z,20.79
2018-12-02T01:10:33.006Z,20.78
2018-12-02T01:11:04.612Z,20.77
2018-12-02T01:11:36.245Z,20.78
2018-12-02T01:12:07.849Z,20.78
2018-12-02T01:12:39.447Z,20.76
2018-12-02T01:13:11.042Z,20.77
2018-12-02T01:13:42.634Z,20.77
2018-12-02T01:14:14.225Z,20.77
2018-12-02T01:14:45.818Z,20.77
2018-12-02T01:15:17.430Z,20.76
2018-12-02T01:15:49.016Z,20.75
2018-12-02T01:16:20.654Z,20.76
2018-12-02T01:16:52.232Z,20.76
2018-12-02T01:17:23.827Z,20.76
2018-12-02T01:17:55.426Z,20.76
2018-12-02T01:18:27.036Z,20.77
2018-12-02T01:18:58.643Z,20.76
2018-12-02T01:19:30.292Z,20.75
2018-12-02T01:20:01.886Z,20.73
2018-12-02T01:20:33.508Z,20.74
2018-12-02T01:21:05.105Z,20.74
2018-12-02T01:21:36.706Z,20.74
2018-12-02T01:22:08.318Z,20.74
2018-12-02T01:22:39.959Z,20.74
2018-12-02T01:23:11.567Z,20.74
2018-12-02T01:23:43.177Z,20.71
2018-12-02T01:24:14.765Z,20.73
2018-12-02T01:24:46.358Z,20.72
2018-12-02T01:25:17.954Z,20.73
2018-12-02T01:25:49.546Z,20.74
2018-12-02T01:26:21.138Z,20.74
2018-12-02T01:26:52.786Z,20.78
2018-12-02T01:27:24.383Z,20.79
2018-12-02T01:27:56.002Z,20.81
2018-12-02T01:28:27.602Z,20.80
2018-12-02T01:28:59.194Z,20.80
2018-12-02T01:29:30.793Z,20.79
2018-12-02T01:30:02.376Z,20.80
2018-12-02T01:30:33.985Z,20.80
2018-12-02T01:31:05.588Z,20.79
2018-12-02T01:31:37.196Z,20.79
2018-12-02T01:32:08.874Z,20.79
2018-12-02T01:32:40.467Z,20.78
2018-12-02T01:33:12.067Z,20.77
2018-12-02T01:33:43.676Z,20.77
2018-12-02T01:34:15.273Z,20.77
2018-12-02T01:34:46.882Z,20.77
2018-12-02T01:35:18.499Z,20.77
2018-12-02T01:35:50.131Z,20.77
2018-12-02T01:36:21.765Z,20.76
2018-12-02T01:36:53.408Z,20.75
2018-12-02T01:37:25.011Z,20.75
2018-12-02T01:37:56.606Z,20.74
2018-12-02T01:38:28.202Z,20.75
2018-12-02T01:38:59.807Z,20.75
2018-12-02T01:39:31.422Z,20.76
2018-12-02T01:40:03.018Z,20.75
2018-12-02T01:40:34.625Z,20.75
2018-12-02T01:41:06.231Z,20.77
2018-12-02T01:41:37.840Z,20.82
2018-12-02T01:42:09.478Z,20.84
2018-12-02T01:42:41.086Z,20.87
2018-12-02T01:43:12.682Z,20.89
2018-12-02T01:43:44.284Z,20.89
2018-12-02T01:44:15.879Z,20.89
2018-12-02T01:44:47.506Z,20.88
2018-12-02T01:45:19.098Z,20.89
2018-12-02T01:45:50.708Z,20.89
2018-12-02T01:46:22.316Z,20.87
2018-12-02T01:46:53.910Z,20.90
2018-12-02T01:47:25.511Z,20.89
2018-12-02T01:47:57.109Z,20.89
2018-12-02T01:48:28.739Z,20.89
2018-12-02T01:49:00.361Z,20.88
2018-12-02T01:49:31.953Z,20.88
2018-12-02T01:50:03.559Z,20.87
2018-12-02T01:50:35.158Z,20.86
2018-12-02T01:51:06.745Z,20.86
2018-12-02T01:51:38.337Z,20.87
2018-12-02T01:52:09.945Z,20.86
2018-12-02T01:52:41.582Z,20.86
2018-12-02T01:53:13.178Z,20.85
2018-12-02T01:53:44.770Z,20.85
2018-12-02T01:54:16.362Z,20.85
2018-12-02T01:54:47.948Z,20.86
2018-12-02T01:55:19.545Z,20.86
2018-12-02T01:55:51.397Z,20.85
2018-12-02T01:56:23.008Z,20.85
2018-12-02T01:56:54.635Z,20.86
2018-12-02T01:57:26.225Z,20.86
2018-12-02T01:57:57.818Z,20.85
2018-12-02T01:58:29.415Z,20.84
2018-12-02T01:59:01.006Z,20.84
2018-12-02T01:59:32.598Z,20.83
2018-12-02T02:00:04.194Z,20.83
2018-12-02T02:00:35.776Z,20.82
2018-12-02T02:01:07.370Z,20.82
2018-12-02T02:01:38.963Z,20.82
2018-12-02T02:02:10.590Z,20.82
2018-12-02T02:02:42.204Z,20.81
2018-12-02T02:03:13.804Z,20.81
2018-12-02T02:03:45.397Z,20.81
2018-12-02T02:04:16.996Z,20.81
2018-12-02T02:04:48.590Z,20.82
2018-12-02T02:05:20.186Z,20.81
2018-12-02T02:05:51.772Z,20.81
2018-12-02T02:06:23.384Z,20.81
2018-12-02T02:06:54.983Z,20.81
2018-12-02T02:07:26.618Z,20.59
2018-12-02T02:07:58.210Z,20.80
2018-12-02T02:08:29.860Z,20.81
2018-12-02T02:09:01.464Z,20.81
2018-12-02T02:09:33.066Z,20.81
2018-12-02T02:10:04.648Z,20.81
2018-12-02T02:10:36.241Z,20.81
2018-12-02T02:11:07.828Z,20.81
2018-12-02T02:11:39.436Z,20.79
2018-12-02T02:12:11.032Z,20.80
2018-12-02T02:12:42.626Z,20.81
2018-12-02T02:13:14.221Z,20.79
2018-12-02T02:13:45.823Z,20.81
2018-12-02T02:14:17.431Z,20.82
2018-12-02T02:14:49.039Z,20.82
2018-12-02T02:15:20.634Z,20.82
2018-12-02T02:15:52.248Z,20.84
2018-12-02T02:16:23.856Z,20.86
2018-12-02T02:16:55.440Z,20.87
2018-12-02T02:17:27.034Z,20.87
2018-12-02T02:17:58.684Z,20.87
2018-12-02T02:18:30.296Z,20.86
2018-12-02T02:19:01.884Z,20.85
2018-12-02T02:19:33.474Z,20.84
2018-12-02T02:20:05.070Z,20.83
2018-12-02T02:20:36.672Z,20.81
2018-12-02T02:21:08.284Z,20.82
2018-12-02T02:21:39.936Z,20.82
2018-12-02T02:22:11.521Z,20.82
2018-12-02T02:22:43.115Z,20.82
2018-12-02T02:23:14.792Z,20.79
2018-12-02T02:23:46.430Z,20.81
2018-12-02T02:24:18.012Z,20.80
2018-12-02T02:24:49.646Z,20.81
2018-12-02T02:25:21.865Z,20.80
2018-12-02T02:25:53.465Z,20.80
2018-12-02T02:26:25.076Z,20.79
2018-12-02T02:26:56.675Z,20.78
2018-12-02T02:27:28.289Z,20.56
2018-12-02T02:27:59.896Z,20.78
2018-12-02T02:28:31.503Z,20.77
2018-12-02T02:29:03.138Z,20.76
2018-12-02T02:29:34.720Z,20.76
2018-12-02T02:30:06.321Z,20.76
2018-12-02T02:30:37.915Z,20.76
2018-12-02T02:31:09.517Z,20.76
2018-12-02T02:31:41.125Z,20.76
2018-12-02T02:32:13.056Z,20.75
2018-12-02T02:32:44.649Z,20.76
2018-12-02T02:33:16.247Z,20.75
2018-12-02T02:33:47.842Z,20.75
2018-12-02T02:34:19.442Z,20.75
2018-12-02T02:34:51.029Z,20.76
2018-12-02T02:35:22.668Z,20.75
2018-12-02T02:35:54.293Z,20.74
2018-12-02T02:36:25.889Z,20.74
2018-12-02T02:36:57.486Z,20.74
2018-12-02T02:37:29.078Z,20.73
2018-12-02T02:38:00.671Z,20.73
2018-12-02T02:38:32.266Z,20.72
2018-12-02T02:39:03.861Z,20.71
2018-12-02T02:39:35.552Z,20.71
2018-12-02T02:40:07.151Z,20.71
2018-12-02T02:40:38.792Z,20.71
2018-12-02T02:41:10.400Z,20.71
2018-12-02T02:41:42.002Z,20.71
2018-12-02T02:42:13.615Z,20.71
2018-12-02T02:42:45.230Z,20.70
2018-12-02T02:43:16.829Z,20.71
2018-12-02T02:43:48.419Z,20.70
2018-12-02T02:44:20.031Z,20.69
2018-12-02T02:44:51.629Z,20.69
2018-12-02T02:45:23.240Z,20.69
2018-12-02T02:45:54.878Z,20.69
2018-12-02T02:46:26.474Z,20.69
2018-12-02T02:46:58.059Z,20.69
2018-12-02T02:47:29.670Z,20.70
2018-12-02T02:48:01.266Z,20.70
2018-12-02T02:48:32.862Z,20.69
2018-12-02T02:49:04.493Z,20.68
2018-12-02T02:49:36.098Z,20.68
2018-12-02T02:50:07.684Z,20.68
2018-12-02T02:50:39.283Z,20.67
2018-12-02T02:51:10.878Z,20.68
2018-12-02T02:51:42.474Z,20.68
2018-12-02T02:52:14.059Z,20.69
2018-12-02T02:52:45.670Z,20.71
2018-12-02T02:53:17.266Z,20.72
2018-12-02T02:53:48.917Z,20.74
2018-12-02T02:54:20.523Z,20.73
2018-12-02T02:54:52.118Z,20.74
2018-12-02T02:55:23.725Z,20.77
2018-12-02T02:55:55.321Z,20.78
2018-12-02T02:56:26.960Z,20.78
2018-12-02T02:56:58.554Z,20.79
2018-12-02T02:57:30.157Z,20.79
2018-12-02T02:58:01.762Z,20.79
2018-12-02T02:58:33.345Z,20.78
2018-12-02T02:59:04.952Z,20.78
2018-12-02T02:59:36.564Z,20.76
2018-12-02T03:00:08.232Z,20.75
2018-12-02T03:00:39.840Z,20.74
2018-12-02T03:01:11.424Z,20.74
2018-12-02T03:01:43.028Z,20.73
2018-12-02T03:02:14.636Z,20.73
2018-12-02T03:02:46.236Z,20.73
2018-12-02T03:03:17.836Z,20.73
2018-12-02T03:03:49.442Z,20.72
2018-12-02T03:04:21.033Z,20.72
2018-12-02T03:04:52.644Z,20.62
2018-12-02T03:05:24.242Z,20.72
2018-12-02T03:05:55.845Z,20.72
2018-12-02T03:06:27.449Z,20.71
2018-12-02T03:06:59.046Z,20.73
2018-12-02T03:07:30.645Z,20.72
2018-12-02T03:08:02.238Z,20.72
2018-12-02T03:08:33.849Z,20.73
2018-12-02T03:09:05.454Z,20.73
2018-12-02T03:09:37.049Z,20.74
2018-12-02T03:10:08.636Z,20.73
2018-12-02T03:10:40.244Z,20.73
2018-12-02T03:11:11.848Z,20.73
2018-12-02T03:11:43.442Z,20.72
2018-12-02T03:12:15.037Z,20.73
2018-12-02T03:12:46.638Z,20.73
2018-12-02T03:13:18.243Z,20.73
2018-12-02T03:13:49.847Z,20.73
2018-12-02T03:14:21.445Z,20.72
2018-12-02T03:14:53.039Z,20.72
2018-12-02T03:15:24.642Z,20.72
2018-12-02T03:15:56.242Z,20.72
2018-12-02T03:16:27.834Z,20.72
2018-12-02T03:16:59.440Z,20.72
2018-12-02T03:17:31.033Z,20.73
2018-12-02T03:18:02.683Z,20.73
2018-12-02T03:18:34.278Z,20.72
2018-12-02T03:19:05.875Z,20.72
2018-12-02T03:19:37.478Z,20.72
2018-12-02T03:20:09.080Z,20.72
2018-12-02T03:20:40.708Z,20.65
2018-12-02T03:21:12.302Z,20.73
2018-12-02T03:21:43.898Z,20.73
2018-12-02T03:22:15.509Z,20.72
2018-12-02T03:22:47.123Z,20.71
2018-12-02T03:23:18.775Z,20.71
2018-12-02T03:23:50.379Z,20.72
2018-12-02T03:24:21.974Z,20.73
2018-12-02T03:24:53.565Z,20.73
2018-12-02T03:25:25.157Z,20.74
2018-12-02T03:25:56.754Z,20.74
2018-12-02T03:26:28.349Z,20.72
2018-12-02T03:26:59.954Z,20.75
2018-12-02T03:27:31.545Z,20.75
2018-12-02T03:28:03.142Z,20.76
2018-12-02T03:28:34.778Z,20.76
2018-12-02T03:29:06.370Z,20.76
2018-12-02T03:29:37.952Z,20.76
2018-12-02T03:30:09.546Z,20.76
2018-12-02T03:30:41.189Z,20.77
2018-12-02T03:31:12.787Z,20.75
2018-12-02T03:31:44.385Z,20.76
2018-12-02T03:32:16.079Z,20.77
2018-12-02T03:32:47.704Z,20.78
2018-12-02T03:33:19.364Z,20.77
2018-12-02T03:33:50.961Z,20.77
2018-12-02T03:34:22.544Z,20.77
2018-12-02T03:34:54.134Z,20.77
2018-12-02T03:35:25.735Z,20.75
2018-12-02T03:35:57.337Z,20.76
2018-12-02T03:36:28.934Z,20.75
2018-12-02T03:37:00.516Z,20.76
2018-12-02T03:37:32.115Z,20.76
2018-12-02T03:38:03.724Z,20.75
2018-12-02T03:38:35.370Z,20.75
2018-12-02T03:39:06.956Z,20.76
2018-12-02T03:39:38.559Z,20.76
2018-12-02T03:40:10.162Z,20.79
2018-12-02T03:40:41.778Z,20.81
2018-12-02T03:41:13.360Z,20.82
2018-12-02T03:41:44.958Z,20.83
2018-12-02T03:42:16.560Z,20.83
2018-12-02T03:42:48.198Z,20.83
2018-12-02T03:43:19.807Z,20.84
2018-12-02T03:43:51.445Z,20.84
2018-12-02T03:44:23.046Z,20.84
2018-12-02T03:44:54.657Z,20.83
2018-12-02T03:45:26.269Z,20.83
2018-12-02T03:45:57.877Z,20.84
2018-12-02T03:46:29.484Z,20.84
2018-12-02T03:47:01.078Z,20.82
2018-12-02T03:47:32.680Z,20.84
2018-12-02T03:48:04.283Z,20.83
2018-12-02T03:48:35.882Z,20.84
2018-12-02T03:49:07.532Z,20.85
2018-12-02T03:49:39.354Z,20.86
2018-12-02T03:50:17.131Z,20.86
2018-12-02T03:50:42.653Z,20.86
2018-12-02T03:51:14.245Z,20.86
2018-12-02T03:51:45.838Z,20.85
2018-12-02T03:52:17.429Z,20.86
2018-12-02T03:52:49.037Z,20.85
2018-12-02T03:53:20.688Z,20.84
2018-12-02T03:53:52.288Z,20.86
2018-12-02T03:54:23.886Z,20.86
2018-12-02T03:54:55.512Z,20.85
2018-12-02T03:55:27.091Z,20.85
2018-12-02T03:55:58.682Z,20.85
2018-12-02T03:56:30.278Z,20.84
2018-12-02T03:57:01.997Z,20.84
2018-12-02T03:57:33.601Z,20.83
2018-12-02T03:58:05.217Z,20.84
2018-12-02T03:58:36.871Z,20.83
2018-12-02T03:59:08.470Z,20.83
2018-12-02T03:59:40.226Z,20.81
2018-12-02T04:00:11.818Z,20.82
2018-12-02T04:00:43.410Z,20.81
2018-12-02T04:01:15.006Z,20.81
2018-12-02T04:01:46.611Z,20.81
2018-12-02T04:02:18.220Z,20.78
2018-12-02T04:02:49.817Z,20.80
2018-12-02T04:03:21.432Z,20.80
2018-12-02T04:03:53.434Z,20.80
2018-12-02T04:04:25.029Z,20.79
2018-12-02T04:04:56.652Z,20.79
2018-12-02T04:05:28.246Z,20.77
2018-12-02T04:05:59.851Z,20.78
2018-12-02T04:06:31.446Z,20.78
2018-12-02T04:07:03.059Z,20.79
2018-12-02T04:07:34.656Z,20.79
2018-12-02T04:08:06.253Z,20.78
2018-12-02T04:08:37.846Z,20.78
2018-12-02T04:09:09.438Z,20.80
2018-12-02T04:09:41.034Z,20.83
2018-12-02T04:10:12.678Z,20.84
2018-12-02T04:10:44.273Z,20.86
2018-12-02T04:11:15.875Z,20.86
2018-12-02T04:11:47.461Z,20.85
2018-12-02T04:12:19.053Z,20.87
2018-12-02T04:12:50.679Z,20.87
2018-12-02T04:13:22.282Z,20.87
2018-12-02T04:13:53.930Z,20.86
2018-12-02T04:14:25.522Z,20.86
2018-12-02T04:14:57.137Z,20.87
2018-12-02T04:15:28.744Z,20.87
2018-12-02T04:16:00.328Z,20.85
2018-12-02T04:16:31.922Z,20.86
2018-12-02T04:17:03.519Z,20.86
2018-12-02T04:17:35.109Z,20.85
2018-12-02T04:18:06.717Z,20.84
2018-12-02T04:18:38.319Z,20.83
2018-12-02T04:19:09.918Z,20.82
2018-12-02T04:19:41.509Z,20.82
2018-12-02T04:20:13.112Z,20.80
2018-12-02T04:20:44.727Z,20.82
2018-12-02T04:21:16.326Z,20.81
2018-12-02T04:21:47.918Z,20.81
2018-12-02T04:22:19.514Z,20.80
2018-12-02T04:22:51.135Z,20.79
2018-12-02T04:23:22.770Z,20.78
2018-12-02T04:23:54.379Z,20.76
2018-12-02T04:24:25.979Z,20.77
2018-12-02T04:24:57.573Z,20.77
2018-12-02T04:25:29.173Z,20.77
2018-12-02T04:26:00.828Z,20.76
2018-12-02T04:26:32.436Z,20.76
2018-12-02T04:27:04.038Z,20.75
2018-12-02T04:27:35.640Z,20.75
2018-12-02T04:28:07.234Z,20.75
2018-12-02T04:28:38.827Z,20.75
2018-12-02T04:29:10.413Z,20.75
2018-12-02T04:29:42.022Z,20.75
2018-12-02T04:30:13.623Z,20.75
2018-12-02T04:30:45.251Z,20.75
2018-12-02T04:31:16.832Z,20.76
2018-12-02T04:31:48.430Z,20.76
2018-12-02T04:32:20.042Z,20.76
2018-12-02T04:32:51.657Z,20.75
2018-12-02T04:33:23.262Z,20.76
2018-12-02T04:33:54.854Z,20.75
2018-12-02T04:34:26.464Z,20.75
2018-12-02T04:34:58.076Z,20.75
2018-12-02T04:35:29.716Z,20.75
2018-12-02T04:36:01.320Z,20.74
2018-12-02T04:36:32.921Z,20.75
2018-12-02T04:37:04.532Z,20.73
2018-12-02T04:37:36.242Z,20.75
2018-12-02T04:38:07.854Z,20.74
2018-12-02T04:38:39.447Z,20.75
2018-12-02T04:39:11.055Z,20.75
2018-12-02T04:39:42.654Z,20.72
2018-12-02T04:40:14.246Z,20.72
2018-12-02T04:40:45.895Z,20.72
2018-12-02T04:41:17.494Z,20.73
2018-12-02T04:41:49.108Z,20.74
2018-12-02T04:42:20.703Z,20.74
2018-12-02T04:42:52.309Z,20.73
2018-12-02T04:43:23.911Z,20.73
2018-12-02T04:43:55.521Z,20.74
2018-12-02T04:44:27.114Z,20.74
2018-12-02T04:44:58.696Z,20.74
2018-12-02T04:45:30.287Z,20.74
2018-12-02T04:46:01.936Z,20.75
2018-12-02T04:46:33.524Z,20.75
2018-12-02T04:47:05.113Z,20.75
2018-12-02T04:47:36.705Z,20.75
2018-12-02T04:48:08.297Z,20.74
2018-12-02T04:48:39.890Z,20.74
2018-12-02T04:49:11.490Z,20.74
2018-12-02T04:49:43.082Z,20.74
2018-12-02T04:50:14.722Z,20.74
2018-12-02T04:50:46.393Z,20.72
2018-12-02T04:51:18.003Z,20.76
2018-12-02T04:51:49.615Z,20.78
2018-12-02T04:52:21.266Z,20.79
2018-12-02T04:52:52.876Z,20.81
2018-12-02T04:53:24.483Z,20.81
2018-12-02T04:53:56.077Z,20.80
2018-12-02T04:54:27.699Z,20.81
2018-12-02T04:54:59.313Z,20.80
2018-12-02T04:55:30.925Z,20.81
2018-12-02T04:56:02.534Z,20.81
2018-12-02T04:56:34.140Z,20.81
2018-12-02T04:57:05.738Z,20.81
2018-12-02T04:57:37.369Z,20.83
2018-12-02T04:58:08.971Z,20.83
2018-12-02T04:58:40.578Z,20.84
2018-12-02T04:59:12.187Z,20.85
2018-12-02T04:59:43.842Z,20.85
2018-12-02T05:00:15.456Z,20.86
2018-12-02T05:00:47.072Z,20.86
2018-12-02T05:01:18.683Z,20.86
2018-12-02T05:01:50.278Z,20.86
2018-12-02T05:02:21.885Z,20.85
2018-12-02T05:02:53.497Z,20.85
2018-12-02T05:03:25.109Z,20.84
2018-12-02T05:03:56.711Z,20.83
2018-12-02T05:04:28.300Z,20.83
2018-12-02T05:04:59.934Z,20.83
2018-12-02T05:05:31.554Z,20.82
2018-12-02T05:06:03.166Z,20.82
2018-12-02T05:06:34.816Z,20.81
2018-12-02T05:07:06.410Z,20.82
2018-12-02T05:07:37.997Z,20.83
2018-12-02T05:08:09.591Z,20.83
2018-12-02T05:08:41.196Z,20.83
2018-12-02T05:09:12.835Z,20.83
2018-12-02T05:09:44.445Z,20.83
2018-12-02T05:10:16.055Z,20.84
2018-12-02T05:10:47.664Z,20.85
2018-12-02T05:11:19.272Z,20.84
2018-12-02T05:11:50.867Z,20.85
2018-12-02T05:12:22.462Z,20.85
2018-12-02T05:12:54.059Z,20.85
2018-12-02T05:13:25.679Z,20.83
2018-12-02T05:13:57.284Z,20.86
2018-12-02T05:14:28.918Z,20.85
2018-12-02T05:15:00.517Z,20.85
2018-12-02T05:15:32.114Z,20.86
2018-12-02T05:16:03.705Z,20.86
2018-12-02T05:16:35.303Z,20.85
2018-12-02T05:17:06.898Z,20.85
2018-12-02T05:17:38.498Z,20.86
2018-12-02T05:18:10.113Z,20.86
2018-12-02T05:18:41.710Z,20.85
2018-12-02T05:19:13.324Z,20.85
2018-12-02T05:19:44.932Z,20.85
2018-12-02T05:20:16.526Z,20.84
2018-12-02T05:20:48.155Z,20.84
2018-12-02T05:21:19.793Z,20.83
2018-12-02T05:21:51.396Z,20.83
2018-12-02T05:22:23.044Z,20.83
2018-12-02T05:22:54.652Z,20.83
2018-12-02T05:23:26.245Z,20.84
2018-12-02T05:23:57.841Z,20.84
2018-12-02T05:24:29.423Z,20.84
2018-12-02T05:25:01.058Z,20.84
2018-12-02T05:25:32.708Z,20.84
2018-12-02T05:26:04.302Z,20.84
2018-12-02T05:26:35.903Z,20.84
2018-12-02T05:27:07.489Z,20.83
2018-12-02T05:27:39.082Z,20.84
2018-12-02T05:28:10.693Z,20.87
2018-12-02T05:28:42.305Z,20.89
2018-12-02T05:29:13.952Z,20.90
2018-12-02T05:29:45.549Z,20.93
2018-12-02T05:30:17.190Z,20.94
2018-12-02T05:30:48.784Z,20.94
2018-12-02T05:31:20.392Z,20.95
2018-12-02T05:31:51.998Z,20.94
2018-12-02T05:32:23.608Z,20.93
2018-12-02T05:32:55.206Z,20.93
2018-12-02T05:33:26.780Z,20.93
2018-12-02T05:33:58.385Z,20.91
2018-12-02T05:34:29.996Z,20.92
2018-12-02T05:35:01.610Z,20.92
2018-12-02T05:35:33.214Z,20.91
2018-12-02T05:36:04.850Z,20.90
2018-12-02T05:36:36.446Z,20.89
2018-12-02T05:37:08.052Z,20.89
2018-12-02T05:37:39.689Z,20.89
2018-12-02T05:38:11.282Z,20.90
2018-12-02T05:38:42.874Z,20.87
2018-12-02T05:39:14.468Z,20.88
2018-12-02T05:39:46.076Z,20.87
2018-12-02T05:40:17.676Z,20.92
2018-12-02T05:40:49.270Z,20.98
2018-12-02T05:41:20.867Z,21.02
2018-12-02T05:41:52.475Z,21.05
2018-12-02T05:42:24.074Z,21.06
2018-12-02T05:42:55.666Z,21.09
2018-12-02T05:43:27.279Z,21.09
2018-12-02T05:43:58.908Z,21.10
2018-12-02T05:44:30.504Z,21.09
2018-12-02T05:45:02.111Z,21.09
2018-12-02T05:45:33.731Z,21.10
2018-12-02T05:46:05.321Z,21.10
2018-12-02T05:46:36.909Z,21.08
2018-12-02T05:47:08.512Z,21.09
2018-12-02T05:47:40.151Z,21.08
2018-12-02T05:48:11.750Z,21.05
2018-12-02T05:48:43.392Z,21.08
2018-12-02T05:49:14.987Z,21.08
2018-12-02T05:49:46.568Z,21.08
2018-12-02T05:50:18.151Z,21.07
2018-12-02T05:50:49.741Z,21.07
2018-12-02T05:51:21.355Z,21.08
2018-12-02T05:51:52.964Z,21.08
2018-12-02T05:52:24.576Z,21.06
2018-12-02T05:52:56.184Z,21.03
2018-12-02T05:53:27.778Z,21.00
2018-12-02T05:53:59.380Z,20.98
2018-12-02T05:54:30.987Z,20.95
2018-12-02T05:55:02.625Z,20.92
2018-12-02T05:55:34.209Z,20.70
2018-12-02T05:56:05.806Z,20.89
2018-12-02T05:56:37.416Z,20.88
2018-12-02T05:57:09.028Z,20.86
2018-12-02T05:57:40.637Z,20.86
2018-12-02T05:58:12.233Z,20.86
2018-12-02T05:58:43.866Z,20.83
2018-12-02T05:59:15.472Z,20.85
2018-12-02T05:59:47.089Z,20.84
2018-12-02T06:00:18.696Z,20.83
2018-12-02T06:00:50.280Z,20.82
2018-12-02T06:01:21.888Z,20.81
2018-12-02T06:01:53.472Z,20.80
2018-12-02T06:02:25.081Z,20.82
2018-12-02T06:02:56.720Z,20.84
2018-12-02T06:03:28.304Z,20.86
2018-12-02T06:03:59.898Z,20.86
2018-12-02T06:04:31.490Z,20.86
2018-12-02T06:05:03.072Z,20.87
2018-12-02T06:05:34.673Z,20.87
2018-12-02T06:06:06.272Z,20.88
2018-12-02T06:06:37.857Z,20.88
2018-12-02T06:07:09.463Z,20.89
2018-12-02T06:07:41.059Z,20.89
2018-12-02T06:08:12.712Z,20.90
2018-12-02T06:08:44.305Z,20.89
2018-12-02T06:09:15.898Z,20.88
2018-12-02T06:09:47.542Z,20.88
2018-12-02T06:10:19.124Z,20.87
2018-12-02T06:10:50.737Z,20.87
2018-12-02T06:11:22.340Z,20.86
2018-12-02T06:11:53.948Z,20.87
2018-12-02T06:12:25.552Z,20.86
2018-12-02T06:12:57.155Z,20.86
2018-12-02T06:13:28.766Z,20.86
2018-12-02T06:14:00.376Z,20.87
2018-12-02T06:14:31.987Z,20.86
2018-12-02T06:15:03.911Z,20.85
2018-12-02T06:15:35.524Z,20.84
2018-12-02T06:16:07.118Z,20.82
2018-12-02T06:16:38.728Z,20.80
2018-12-02T06:17:10.321Z,20.79
2018-12-02T06:17:41.929Z,20.78
2018-12-02T06:18:13.511Z,20.77
2018-12-02T06:18:45.106Z,20.75
2018-12-02T06:19:16.688Z,20.75
2018-12-02T06:19:48.282Z,20.74
2018-12-02T06:20:19.882Z,20.73
2018-12-02T06:20:51.480Z,20.72
2018-12-02T06:21:23.061Z,20.73
2018-12-02T06:21:54.668Z,20.73
2018-12-02T06:22:26.300Z,20.73
2018-12-02T06:22:57.909Z,20.73
2018-12-02T06:23:29.498Z,20.73
2018-12-02T06:24:01.080Z,20.72
2018-12-02T06:24:32.690Z,20.73
2018-12-02T06:25:04.296Z,20.74
2018-12-02T06:25:35.893Z,20.71
2018-12-02T06:26:08.282Z,20.72
2018-12-02T06:26:39.159Z,20.72
2018-12-02T06:27:10.750Z,20.72
2018-12-02T06:27:42.341Z,20.72
2018-12-02T06:28:13.933Z,20.71
2018-12-02T06:28:45.565Z,20.71
2018-12-02T06:29:17.158Z,20.70
2018-12-02T06:29:48.769Z,20.70
2018-12-02T06:30:20.378Z,20.70
2018-12-02T06:30:51.988Z,20.70
2018-12-02T06:31:23.634Z,20.70
2018-12-02T06:31:55.230Z,20.70
2018-12-02T06:32:26.831Z,20.70
2018-12-02T06:32:58.440Z,20.70
2018-12-02T06:33:30.034Z,20.70
2018-12-02T06:34:01.640Z,20.71
2018-12-02T06:34:33.248Z,20.70
2018-12-02T06:35:04.831Z,20.69
2018-12-02T06:35:36.436Z,20.70
2018-12-02T06:36:08.044Z,20.71
2018-12-02T06:36:39.687Z,20.71
2018-12-02T06:37:11.272Z,20.72
2018-12-02T06:37:42.884Z,20.70
2018-12-02T06:38:14.469Z,20.71
2018-12-02T06:38:46.066Z,20.71
2018-12-02T06:39:17.662Z,20.72
2018-12-02T06:39:49.259Z,20.72
2018-12-02T06:40:20.858Z,20.72
2018-12-02T06:40:52.488Z,20.72
2018-12-02T06:41:24.102Z,20.71
2018-12-02T06:41:55.710Z,20.69
2018-12-02T06:42:27.345Z,20.72
2018-12-02T06:42:58.945Z,20.73
2018-12-02T06:43:30.552Z,20.73
2018-12-02T06:44:02.162Z,20.73
2018-12-02T06:44:33.754Z,20.73
2018-12-02T06:45:05.345Z,20.73
2018-12-02T06:45:36.942Z,20.73
2018-12-02T06:46:08.524Z,20.74
2018-12-02T06:46:40.112Z,20.74
2018-12-02T06:47:11.710Z,20.73